sensor_id;sensor_type;location;lat;lon;timestamp;temperature;humidity
26947;DHT22;14501;52.282;10.560;2024-03-29T00:03:10;7.80;99.90
26947;DHT22;14501;52.282;10.560;2024-03-29T00:05:36;7.80;99.90
26947;DHT22;14501;52.282;10.560;2024-03-29T00:08:05;7.70;99.90
26947;DHT22;14501;52.282;10.560;2024-03-29T00:10:31;7.70;99.90
26947;DHT22;14501;52.282;10.560;2024-03-29T00:12:57;7.70;99.90
26947;DHT22;14501;52.282;10.560;2024-03-29T00:15:22;7.70;99.90
26947;DHT22;14501;52.282;10.560;2024-03-29T00:17:48;7.60;99.90
26947;DHT22;14501;52.282;10.560;2024-03-29T00:20:13;7.50;99.90
26947;DHT22;14501;52.282;10.560;2024-03-29T00:22:39;7.50;99.90
26947;DHT22;14501;52.282;10.560;2024-03-29T00:25:05;7.50;99.90
26947;DHT22;14501;52.282;10.560;2024-03-29T00:27:31;7.50;99.90
26947;DHT22;14501;52.282;10.560;2024-03-29T00:29:58;10.00;99.90
26947;DHT22;14501;52.282;10.560;2024-03-29T00:32:23;7.40;99.90
26947;DHT22;14501;52.282;10.560;2024-03-29T00:34:50;6.90;99.90
26947;DHT22;14501;52.282;10.560;2024-03-29T00:37:16;7.60;99.90
26947;DHT22;14501;52.282;10.560;2024-03-29T00:39:42;7.30;99.90
26947;DHT22;14501;52.282;10.560;2024-03-29T00:42:08;7.30;99.90
26947;DHT22;14501;52.282;10.560;2024-03-29T00:44:35;7.30;99.90
26947;DHT22;14501;52.282;10.560;2024-03-29T00:47:03;7.30;99.90
26947;DHT22;14501;52.282;10.560;2024-03-29T00:49:29;7.30;99.90
26947;DHT22;14501;52.282;10.560;2024-03-29T00:51:55;7.30;99.90
26947;DHT22;14501;52.282;10.560;2024-03-29T00:54:20;7.40;99.90
26947;DHT22;14501;52.282;10.560;2024-03-29T00:56:46;7.40;99.90
26947;DHT22;14501;52.282;10.560;2024-03-29T00:59:12;7.40;99.90
26947;DHT22;14501;52.282;10.560;2024-03-29T01:04:04;7.40;99.90
26947;DHT22;14501;52.282;10.560;2024-03-29T01:06:29;7.40;99.90
26947;DHT22;14501;52.282;10.560;2024-03-29T01:08:55;7.40;99.90
26947;DHT22;14501;52.282;10.560;2024-03-29T01:11:20;7.10;99.90
26947;DHT22;14501;52.282;10.560;2024-03-29T01:13:46;7.20;99.90
26947;DHT22;14501;52.282;10.560;2024-03-29T01:16:11;7.20;99.90
26947;DHT22;14501;52.282;10.560;2024-03-29T01:18:37;7.10;99.90
26947;DHT22;14501;52.282;10.560;2024-03-29T01:21:02;7.10;99.90
26947;DHT22;14501;52.282;10.560;2024-03-29T01:25:54;7.10;99.90
26947;DHT22;14501;52.282;10.560;2024-03-29T01:28:19;7.10;99.90
26947;DHT22;14501;52.282;10.560;2024-03-29T01:30:54;7.00;99.90
26947;DHT22;14501;52.282;10.560;2024-03-29T01:33:20;7.00;99.90
26947;DHT22;14501;52.282;10.560;2024-03-29T01:38:14;6.90;99.90
26947;DHT22;14501;52.282;10.560;2024-03-29T01:43:05;6.90;99.90
26947;DHT22;14501;52.282;10.560;2024-03-29T01:47:59;7.00;99.90
26947;DHT22;14501;52.282;10.560;2024-03-29T01:50:25;6.90;99.90
26947;DHT22;14501;52.282;10.560;2024-03-29T01:52:51;6.80;99.90
26947;DHT22;14501;52.282;10.560;2024-03-29T02:00:10;6.90;99.90
26947;DHT22;14501;52.282;10.560;2024-03-29T02:02:36;6.90;99.90
26947;DHT22;14501;52.282;10.560;2024-03-29T02:05:02;6.70;99.90
26947;DHT22;14501;52.282;10.560;2024-03-29T02:09:56;6.80;99.90
26947;DHT22;14501;52.282;10.560;2024-03-29T02:12:22;6.70;99.90
26947;DHT22;14501;52.282;10.560;2024-03-29T02:14:47;6.90;99.90
26947;DHT22;14501;52.282;10.560;2024-03-29T02:17:13;6.00;99.90
26947;DHT22;14501;52.282;10.560;2024-03-29T02:19:38;7.00;99.90
26947;DHT22;14501;52.282;10.560;2024-03-29T02:22:05;7.10;99.90
26947;DHT22;14501;52.282;10.560;2024-03-29T02:26:58;7.40;99.90
26947;DHT22;14501;52.282;10.560;2024-03-29T02:31:50;7.40;99.90
26947;DHT22;14501;52.282;10.560;2024-03-29T02:34:16;7.30;99.90
26947;DHT22;14501;52.282;10.560;2024-03-29T02:36:42;7.30;99.90
26947;DHT22;14501;52.282;10.560;2024-03-29T02:41:36;7.50;99.90
26947;DHT22;14501;52.282;10.560;2024-03-29T02:44:01;7.40;99.90
26947;DHT22;14501;52.282;10.560;2024-03-29T02:46:27;6.80;99.90
26947;DHT22;14501;52.282;10.560;2024-03-29T02:48:52;7.50;99.90
26947;DHT22;14501;52.282;10.560;2024-03-29T02:51:18;7.80;99.90
26947;DHT22;14501;52.282;10.560;2024-03-29T02:53:44;7.50;99.90
26947;DHT22;14501;52.282;10.560;2024-03-29T02:58:35;7.50;99.90
26947;DHT22;14501;52.282;10.560;2024-03-29T03:01:08;7.40;99.90
26947;DHT22;14501;52.282;10.560;2024-03-29T03:03:34;6.80;99.90
26947;DHT22;14501;52.282;10.560;2024-03-29T03:06:00;7.30;99.90
26947;DHT22;14501;52.282;10.560;2024-03-29T03:08:25;7.30;99.90
26947;DHT22;14501;52.282;10.560;2024-03-29T03:11:09;7.20;99.90
26947;DHT22;14501;52.282;10.560;2024-03-29T03:13:35;7.10;99.90
26947;DHT22;14501;52.282;10.560;2024-03-29T03:16:00;7.10;99.90
26947;DHT22;14501;52.282;10.560;2024-03-29T03:18:26;7.10;99.90
26947;DHT22;14501;52.282;10.560;2024-03-29T03:20:55;7.10;99.90
26947;DHT22;14501;52.282;10.560;2024-03-29T03:23:22;7.00;99.90
26947;DHT22;14501;52.282;10.560;2024-03-29T03:26:02;7.10;99.90
26947;DHT22;14501;52.282;10.560;2024-03-29T03:28:30;7.10;99.90
26947;DHT22;14501;52.282;10.560;2024-03-29T03:33:22;7.10;99.90
26947;DHT22;14501;52.282;10.560;2024-03-29T03:35:48;7.10;99.90
26947;DHT22;14501;52.282;10.560;2024-03-29T03:38:14;7.10;99.90
26947;DHT22;14501;52.282;10.560;2024-03-29T03:40:39;7.00;99.90
26947;DHT22;14501;52.282;10.560;2024-03-29T03:43:06;7.20;99.90
26947;DHT22;14501;52.282;10.560;2024-03-29T03:45:39;7.10;99.90
26947;DHT22;14501;52.282;10.560;2024-03-29T03:48:07;7.20;99.90
26947;DHT22;14501;52.282;10.560;2024-03-29T03:50:33;7.20;99.90
26947;DHT22;14501;52.282;10.560;2024-03-29T03:52:59;6.90;99.90
26947;DHT22;14501;52.282;10.560;2024-03-29T03:55:25;7.10;99.90
26947;DHT22;14501;52.282;10.560;2024-03-29T03:57:50;7.20;99.90
26947;DHT22;14501;52.282;10.560;2024-03-29T04:00:18;7.10;99.90
26947;DHT22;14501;52.282;10.560;2024-03-29T04:02:50;7.30;99.90
26947;DHT22;14501;52.282;10.560;2024-03-29T04:05:19;7.30;99.90
26947;DHT22;14501;52.282;10.560;2024-03-29T04:07:45;7.70;99.90
26947;DHT22;14501;52.282;10.560;2024-03-29T04:10:12;7.30;99.90
26947;DHT22;14501;52.282;10.560;2024-03-29T04:12:38;7.40;99.90
26947;DHT22;14501;52.282;10.560;2024-03-29T04:15:04;7.40;99.90
26947;DHT22;14501;52.282;10.560;2024-03-29T04:17:30;7.50;99.90
26947;DHT22;14501;52.282;10.560;2024-03-29T04:19:59;7.30;99.90
26947;DHT22;14501;52.282;10.560;2024-03-29T04:22:27;7.50;99.90
26947;DHT22;14501;52.282;10.560;2024-03-29T04:24:53;7.50;99.90
26947;DHT22;14501;52.282;10.560;2024-03-29T04:27:18;7.50;99.90
26947;DHT22;14501;52.282;10.560;2024-03-29T04:29:44;7.60;99.90
26947;DHT22;14501;52.282;10.560;2024-03-29T04:32:09;7.60;99.90
26947;DHT22;14501;52.282;10.560;2024-03-29T04:34:35;7.60;99.90
26947;DHT22;14501;52.282;10.560;2024-03-29T04:37:00;7.70;99.90
26947;DHT22;14501;52.282;10.560;2024-03-29T04:39:27;7.70;99.90
26947;DHT22;14501;52.282;10.560;2024-03-29T04:41:53;7.70;99.90
26947;DHT22;14501;52.282;10.560;2024-03-29T04:44:27;7.70;99.90
26947;DHT22;14501;52.282;10.560;2024-03-29T04:46:53;7.70;99.90
26947;DHT22;14501;52.282;10.560;2024-03-29T04:49:19;7.60;99.90
26947;DHT22;14501;52.282;10.560;2024-03-29T04:51:49;7.50;99.90
26947;DHT22;14501;52.282;10.560;2024-03-29T04:54:15;11.50;99.90
26947;DHT22;14501;52.282;10.560;2024-03-29T05:01:35;7.50;99.90
26947;DHT22;14501;52.282;10.560;2024-03-29T05:04:01;9.50;99.90
26947;DHT22;14501;52.282;10.560;2024-03-29T05:06:26;10.00;99.90
26947;DHT22;14501;52.282;10.560;2024-03-29T05:08:52;7.60;99.90
26947;DHT22;14501;52.282;10.560;2024-03-29T05:11:18;7.50;99.90
26947;DHT22;14501;52.282;10.560;2024-03-29T05:13:44;7.60;99.90
26947;DHT22;14501;52.282;10.560;2024-03-29T05:16:10;7.70;99.90
26947;DHT22;14501;52.282;10.560;2024-03-29T05:18:36;7.70;99.90
26947;DHT22;14501;52.282;10.560;2024-03-29T05:21:01;7.70;99.90
26947;DHT22;14501;52.282;10.560;2024-03-29T05:23:27;7.70;99.90
26947;DHT22;14501;52.282;10.560;2024-03-29T05:25:53;7.70;99.90
26947;DHT22;14501;52.282;10.560;2024-03-29T05:28:19;7.80;99.90
26947;DHT22;14501;52.282;10.560;2024-03-29T05:30:44;7.70;99.90
26947;DHT22;14501;52.282;10.560;2024-03-29T05:33:10;7.80;99.90
26947;DHT22;14501;52.282;10.560;2024-03-29T05:35:36;7.70;99.90
26947;DHT22;14501;52.282;10.560;2024-03-29T05:38:01;7.70;99.90
26947;DHT22;14501;52.282;10.560;2024-03-29T05:40:28;7.70;99.90
26947;DHT22;14501;52.282;10.560;2024-03-29T05:42:54;7.80;99.90
26947;DHT22;14501;52.282;10.560;2024-03-29T05:45:30;7.80;99.90
26947;DHT22;14501;52.282;10.560;2024-03-29T05:47:57;7.80;99.90
26947;DHT22;14501;52.282;10.560;2024-03-29T05:50:24;7.80;99.90
26947;DHT22;14501;52.282;10.560;2024-03-29T05:52:51;7.80;99.90
26947;DHT22;14501;52.282;10.560;2024-03-29T05:55:17;7.80;99.90
26947;DHT22;14501;52.282;10.560;2024-03-29T05:57:43;7.80;99.90
26947;DHT22;14501;52.282;10.560;2024-03-29T06:00:12;7.80;99.90
26947;DHT22;14501;52.282;10.560;2024-03-29T06:02:39;7.90;99.90
26947;DHT22;14501;52.282;10.560;2024-03-29T06:05:05;7.90;99.90
26947;DHT22;14501;52.282;10.560;2024-03-29T06:07:31;8.00;99.90
26947;DHT22;14501;52.282;10.560;2024-03-29T06:09:59;8.00;99.90
26947;DHT22;14501;52.282;10.560;2024-03-29T06:12:25;8.00;99.90
26947;DHT22;14501;52.282;10.560;2024-03-29T06:14:51;8.00;99.90
26947;DHT22;14501;52.282;10.560;2024-03-29T06:17:35;7.90;99.90
26947;DHT22;14501;52.282;10.560;2024-03-29T06:20:02;7.80;99.90
26947;DHT22;14501;52.282;10.560;2024-03-29T06:22:29;7.90;99.90
26947;DHT22;14501;52.282;10.560;2024-03-29T06:24:56;7.90;99.90
26947;DHT22;14501;52.282;10.560;2024-03-29T06:27:25;8.00;99.90
26947;DHT22;14501;52.282;10.560;2024-03-29T06:29:50;8.10;99.90
26947;DHT22;14501;52.282;10.560;2024-03-29T06:32:16;8.20;99.90
26947;DHT22;14501;52.282;10.560;2024-03-29T06:34:46;8.30;99.90
26947;DHT22;14501;52.282;10.560;2024-03-29T06:37:12;8.30;99.90
26947;DHT22;14501;52.282;10.560;2024-03-29T06:39:37;8.40;99.90
26947;DHT22;14501;52.282;10.560;2024-03-29T06:42:03;8.40;99.90
26947;DHT22;14501;52.282;10.560;2024-03-29T06:44:29;8.40;99.90
26947;DHT22;14501;52.282;10.560;2024-03-29T06:46:54;8.40;99.90
26947;DHT22;14501;52.282;10.560;2024-03-29T06:49:20;8.40;99.90
26947;DHT22;14501;52.282;10.560;2024-03-29T06:51:46;8.40;99.90
26947;DHT22;14501;52.282;10.560;2024-03-29T06:54:11;8.50;99.90
26947;DHT22;14501;52.282;10.560;2024-03-29T06:56:37;8.40;99.90
26947;DHT22;14501;52.282;10.560;2024-03-29T06:59:03;8.40;99.90
26947;DHT22;14501;52.282;10.560;2024-03-29T07:01:29;8.40;99.90
26947;DHT22;14501;52.282;10.560;2024-03-29T07:03:55;8.40;99.90
26947;DHT22;14501;52.282;10.560;2024-03-29T07:06:21;8.40;99.90
26947;DHT22;14501;52.282;10.560;2024-03-29T07:08:46;8.50;99.90
26947;DHT22;14501;52.282;10.560;2024-03-29T07:11:13;8.50;99.90
26947;DHT22;14501;52.282;10.560;2024-03-29T07:13:38;8.50;99.90
26947;DHT22;14501;52.282;10.560;2024-03-29T07:16:05;8.50;99.90
26947;DHT22;14501;52.282;10.560;2024-03-29T07:18:32;8.50;99.90
26947;DHT22;14501;52.282;10.560;2024-03-29T07:20:58;8.50;99.90
26947;DHT22;14501;52.282;10.560;2024-03-29T07:23:23;8.40;99.90
26947;DHT22;14501;52.282;10.560;2024-03-29T07:26:00;8.40;99.90
26947;DHT22;14501;52.282;10.560;2024-03-29T07:28:26;8.40;99.90
26947;DHT22;14501;52.282;10.560;2024-03-29T07:30:52;8.40;99.90
26947;DHT22;14501;52.282;10.560;2024-03-29T07:33:19;8.40;99.90
26947;DHT22;14501;52.282;10.560;2024-03-29T07:35:47;8.30;99.90
26947;DHT22;14501;52.282;10.560;2024-03-29T07:38:13;8.30;99.90
26947;DHT22;14501;52.282;10.560;2024-03-29T07:40:43;8.40;99.90
26947;DHT22;14501;52.282;10.560;2024-03-29T07:43:08;8.30;99.90
26947;DHT22;14501;52.282;10.560;2024-03-29T07:45:34;8.40;99.90
26947;DHT22;14501;52.282;10.560;2024-03-29T07:48:00;8.60;99.90
26947;DHT22;14501;52.282;10.560;2024-03-29T07:50:25;8.70;99.90
26947;DHT22;14501;52.282;10.560;2024-03-29T07:52:51;8.90;99.90
26947;DHT22;14501;52.282;10.560;2024-03-29T07:55:17;9.00;99.90
26947;DHT22;14501;52.282;10.560;2024-03-29T07:57:43;9.20;99.90
26947;DHT22;14501;52.282;10.560;2024-03-29T08:00:09;9.20;99.90
26947;DHT22;14501;52.282;10.560;2024-03-29T08:02:35;9.10;99.90
26947;DHT22;14501;52.282;10.560;2024-03-29T08:05:03;9.10;99.90
26947;DHT22;14501;52.282;10.560;2024-03-29T08:07:32;9.20;99.90
26947;DHT22;14501;52.282;10.560;2024-03-29T08:09:58;9.20;99.90
26947;DHT22;14501;52.282;10.560;2024-03-29T08:12:23;9.30;99.90
26947;DHT22;14501;52.282;10.560;2024-03-29T08:14:49;9.30;99.90
26947;DHT22;14501;52.282;10.560;2024-03-29T08:17:14;9.40;99.90
26947;DHT22;14501;52.282;10.560;2024-03-29T08:19:41;9.50;99.90
26947;DHT22;14501;52.282;10.560;2024-03-29T08:22:10;9.60;99.90
26947;DHT22;14501;52.282;10.560;2024-03-29T08:24:37;9.90;99.90
26947;DHT22;14501;52.282;10.560;2024-03-29T08:27:02;10.10;99.90
26947;DHT22;14501;52.282;10.560;2024-03-29T08:29:28;10.40;99.90
26947;DHT22;14501;52.282;10.560;2024-03-29T08:31:54;10.80;99.90
26947;DHT22;14501;52.282;10.560;2024-03-29T08:34:19;12.10;99.90
26947;DHT22;14501;52.282;10.560;2024-03-29T08:36:45;11.80;99.90
26947;DHT22;14501;52.282;10.560;2024-03-29T08:39:11;12.10;99.90
26947;DHT22;14501;52.282;10.560;2024-03-29T08:41:40;12.20;99.90
26947;DHT22;14501;52.282;10.560;2024-03-29T08:44:11;12.00;99.90
26947;DHT22;14501;52.282;10.560;2024-03-29T08:46:36;12.10;99.90
26947;DHT22;14501;52.282;10.560;2024-03-29T08:49:02;12.00;99.90
26947;DHT22;14501;52.282;10.560;2024-03-29T08:51:28;11.90;99.90
26947;DHT22;14501;52.282;10.560;2024-03-29T08:53:54;11.70;99.90
26947;DHT22;14501;52.282;10.560;2024-03-29T08:56:20;11.70;99.90
26947;DHT22;14501;52.282;10.560;2024-03-29T08:58:46;11.60;99.90
26947;DHT22;14501;52.282;10.560;2024-03-29T09:01:12;11.50;99.90
26947;DHT22;14501;52.282;10.560;2024-03-29T09:03:40;11.40;99.90
26947;DHT22;14501;52.282;10.560;2024-03-29T09:06:05;11.40;99.90
26947;DHT22;14501;52.282;10.560;2024-03-29T09:08:31;11.40;99.90
26947;DHT22;14501;52.282;10.560;2024-03-29T09:10:56;11.60;99.90
26947;DHT22;14501;52.282;10.560;2024-03-29T09:13:22;11.50;99.90
26947;DHT22;14501;52.282;10.560;2024-03-29T09:15:48;11.60;99.90
26947;DHT22;14501;52.282;10.560;2024-03-29T09:18:14;11.50;99.90
26947;DHT22;14501;52.282;10.560;2024-03-29T09:20:56;11.60;99.90
26947;DHT22;14501;52.282;10.560;2024-03-29T09:23:21;11.60;99.90
26947;DHT22;14501;52.282;10.560;2024-03-29T09:25:48;11.70;99.90
26947;DHT22;14501;52.282;10.560;2024-03-29T09:28:14;11.70;99.90
26947;DHT22;14501;52.282;10.560;2024-03-29T09:30:39;11.70;99.90
26947;DHT22;14501;52.282;10.560;2024-03-29T09:33:05;11.70;99.90
26947;DHT22;14501;52.282;10.560;2024-03-29T09:35:35;11.70;99.90
26947;DHT22;14501;52.282;10.560;2024-03-29T09:38:01;11.70;99.90
26947;DHT22;14501;52.282;10.560;2024-03-29T09:40:26;11.80;99.90
26947;DHT22;14501;52.282;10.560;2024-03-29T09:42:56;11.80;99.90
26947;DHT22;14501;52.282;10.560;2024-03-29T09:45:31;11.80;99.90
26947;DHT22;14501;52.282;10.560;2024-03-29T09:48:02;11.90;99.90
26947;DHT22;14501;52.282;10.560;2024-03-29T09:50:29;12.00;99.90
26947;DHT22;14501;52.282;10.560;2024-03-29T09:52:55;12.20;99.90
26947;DHT22;14501;52.282;10.560;2024-03-29T09:55:21;12.20;99.90
26947;DHT22;14501;52.282;10.560;2024-03-29T09:57:48;12.30;99.90
26947;DHT22;14501;52.282;10.560;2024-03-29T10:00:14;12.50;99.90
26947;DHT22;14501;52.282;10.560;2024-03-29T10:02:40;12.50;99.90
26947;DHT22;14501;52.282;10.560;2024-03-29T10:05:08;12.60;99.90
26947;DHT22;14501;52.282;10.560;2024-03-29T10:07:34;12.60;99.90
26947;DHT22;14501;52.282;10.560;2024-03-29T10:10:01;12.80;99.90
26947;DHT22;14501;52.282;10.560;2024-03-29T10:12:28;12.90;99.90
26947;DHT22;14501;52.282;10.560;2024-03-29T10:14:54;12.80;99.90
26947;DHT22;14501;52.282;10.560;2024-03-29T10:17:47;12.90;99.90
26947;DHT22;14501;52.282;10.560;2024-03-29T10:20:16;13.10;99.90
26947;DHT22;14501;52.282;10.560;2024-03-29T10:22:43;13.30;99.90
26947;DHT22;14501;52.282;10.560;2024-03-29T10:25:13;13.50;99.90
26947;DHT22;14501;52.282;10.560;2024-03-29T10:27:39;13.60;99.90
26947;DHT22;14501;52.282;10.560;2024-03-29T10:30:09;13.70;99.90
26947;DHT22;14501;52.282;10.560;2024-03-29T10:32:40;13.80;99.90
26947;DHT22;14501;52.282;10.560;2024-03-29T10:35:08;14.00;99.90
26947;DHT22;14501;52.282;10.560;2024-03-29T10:37:34;14.60;99.90
26947;DHT22;14501;52.282;10.560;2024-03-29T10:40:09;15.00;99.90
26947;DHT22;14501;52.282;10.560;2024-03-29T10:42:38;15.10;99.90
26947;DHT22;14501;52.282;10.560;2024-03-29T10:45:08;15.40;99.90
26947;DHT22;14501;52.282;10.560;2024-03-29T10:47:34;15.80;99.90
26947;DHT22;14501;52.282;10.560;2024-03-29T10:50:00;16.20;99.90
26947;DHT22;14501;52.282;10.560;2024-03-29T10:52:26;16.80;99.90
26947;DHT22;14501;52.282;10.560;2024-03-29T10:54:53;16.90;99.90
26947;DHT22;14501;52.282;10.560;2024-03-29T10:57:25;16.90;99.90
26947;DHT22;14501;52.282;10.560;2024-03-29T11:02:48;16.90;99.90
26947;DHT22;14501;52.282;10.560;2024-03-29T11:05:15;17.00;99.90
26947;DHT22;14501;52.282;10.560;2024-03-29T11:07:42;17.20;99.90
26947;DHT22;14501;52.282;10.560;2024-03-29T11:10:22;17.20;99.90
26947;DHT22;14501;52.282;10.560;2024-03-29T11:15:29;18.00;99.90
26947;DHT22;14501;52.282;10.560;2024-03-29T11:17:56;18.00;99.90
26947;DHT22;14501;52.282;10.560;2024-03-29T11:20:24;18.20;99.90
26947;DHT22;14501;52.282;10.560;2024-03-29T11:22:53;18.10;99.90
26947;DHT22;14501;52.282;10.560;2024-03-29T11:25:19;17.90;99.90
26947;DHT22;14501;52.282;10.560;2024-03-29T11:27:45;17.90;99.90
26947;DHT22;14501;52.282;10.560;2024-03-29T11:30:17;17.60;99.90
26947;DHT22;14501;52.282;10.560;2024-03-29T11:32:43;17.50;99.90
26947;DHT22;14501;52.282;10.560;2024-03-29T11:35:15;17.60;99.90
26947;DHT22;14501;52.282;10.560;2024-03-29T11:37:42;17.60;99.90
26947;DHT22;14501;52.282;10.560;2024-03-29T11:40:11;17.50;99.90
26947;DHT22;14501;52.282;10.560;2024-03-29T11:42:47;17.30;99.90
26947;DHT22;14501;52.282;10.560;2024-03-29T11:45:13;17.50;99.90
26947;DHT22;14501;52.282;10.560;2024-03-29T11:47:42;17.40;99.90
26947;DHT22;14501;52.282;10.560;2024-03-29T11:50:08;17.10;99.90
26947;DHT22;14501;52.282;10.560;2024-03-29T11:52:34;16.80;99.90
26947;DHT22;14501;52.282;10.560;2024-03-29T11:55:02;16.60;99.90
26947;DHT22;14501;52.282;10.560;2024-03-29T11:57:29;16.60;99.90
26947;DHT22;14501;52.282;10.560;2024-03-29T11:59:55;16.70;99.90
26947;DHT22;14501;52.282;10.560;2024-03-29T12:02:21;17.00;99.90
26947;DHT22;14501;52.282;10.560;2024-03-29T12:04:46;17.60;99.90
26947;DHT22;14501;52.282;10.560;2024-03-29T12:07:12;17.80;99.90
26947;DHT22;14501;52.282;10.560;2024-03-29T12:09:38;18.60;99.90
26947;DHT22;14501;52.282;10.560;2024-03-29T12:12:07;18.10;99.90
26947;DHT22;14501;52.282;10.560;2024-03-29T12:14:35;17.90;99.90
26947;DHT22;14501;52.282;10.560;2024-03-29T12:17:09;17.90;99.90
26947;DHT22;14501;52.282;10.560;2024-03-29T12:19:35;17.80;99.90
26947;DHT22;14501;52.282;10.560;2024-03-29T12:22:03;17.90;99.90
26947;DHT22;14501;52.282;10.560;2024-03-29T12:24:29;17.60;99.90
26947;DHT22;14501;52.282;10.560;2024-03-29T12:26:55;17.50;99.90
26947;DHT22;14501;52.282;10.560;2024-03-29T12:29:21;17.30;99.90
26947;DHT22;14501;52.282;10.560;2024-03-29T12:31:58;16.80;99.90
26947;DHT22;14501;52.282;10.560;2024-03-29T12:34:23;16.20;99.90
26947;DHT22;14501;52.282;10.560;2024-03-29T12:36:49;16.20;99.90
26947;DHT22;14501;52.282;10.560;2024-03-29T12:39:14;16.10;99.90
26947;DHT22;14501;52.282;10.560;2024-03-29T12:41:42;15.90;99.90
26947;DHT22;14501;52.282;10.560;2024-03-29T12:44:10;15.50;99.90
26947;DHT22;14501;52.282;10.560;2024-03-29T12:46:36;15.60;99.90
26947;DHT22;14501;52.282;10.560;2024-03-29T12:49:03;15.40;99.90
26947;DHT22;14501;52.282;10.560;2024-03-29T12:51:29;15.30;99.90
26947;DHT22;14501;52.282;10.560;2024-03-29T12:53:55;15.20;99.90
26947;DHT22;14501;52.282;10.560;2024-03-29T12:56:22;15.10;99.90
26947;DHT22;14501;52.282;10.560;2024-03-29T12:58:48;13.90;99.90
26947;DHT22;14501;52.282;10.560;2024-03-29T13:01:13;15.10;99.90
26947;DHT22;14501;52.282;10.560;2024-03-29T13:03:39;15.00;99.90
26947;DHT22;14501;52.282;10.560;2024-03-29T13:06:06;15.10;99.90
26947;DHT22;14501;52.282;10.560;2024-03-29T13:08:32;15.10;99.90
26947;DHT22;14501;52.282;10.560;2024-03-29T13:10:57;15.30;99.90
26947;DHT22;14501;52.282;10.560;2024-03-29T13:13:23;15.50;99.90
26947;DHT22;14501;52.282;10.560;2024-03-29T13:15:49;15.80;99.90
26947;DHT22;14501;52.282;10.560;2024-03-29T13:18:16;15.90;99.90
26947;DHT22;14501;52.282;10.560;2024-03-29T13:20:42;16.10;99.90
26947;DHT22;14501;52.282;10.560;2024-03-29T13:23:08;16.20;99.90
26947;DHT22;14501;52.282;10.560;2024-03-29T13:25:34;16.50;99.90
26947;DHT22;14501;52.282;10.560;2024-03-29T13:28:00;16.50;99.90
26947;DHT22;14501;52.282;10.560;2024-03-29T13:30:27;16.50;99.90
26947;DHT22;14501;52.282;10.560;2024-03-29T13:32:53;16.50;99.90
26947;DHT22;14501;52.282;10.560;2024-03-29T13:35:19;16.40;99.90
26947;DHT22;14501;52.282;10.560;2024-03-29T13:37:51;16.20;99.90
26947;DHT22;14501;52.282;10.560;2024-03-29T13:40:20;16.10;99.90
26947;DHT22;14501;52.282;10.560;2024-03-29T13:42:46;16.00;99.90
26947;DHT22;14501;52.282;10.560;2024-03-29T13:45:14;16.10;99.90
26947;DHT22;14501;52.282;10.560;2024-03-29T13:47:41;16.10;99.90
26947;DHT22;14501;52.282;10.560;2024-03-29T13:50:09;16.30;99.90
26947;DHT22;14501;52.282;10.560;2024-03-29T13:52:37;16.40;99.90
26947;DHT22;14501;52.282;10.560;2024-03-29T13:55:04;16.50;99.90
26947;DHT22;14501;52.282;10.560;2024-03-29T13:57:30;16.50;99.90
26947;DHT22;14501;52.282;10.560;2024-03-29T13:59:56;16.60;99.90
26947;DHT22;14501;52.282;10.560;2024-03-29T14:02:23;16.60;99.90
26947;DHT22;14501;52.282;10.560;2024-03-29T14:04:51;16.60;99.90
26947;DHT22;14501;52.282;10.560;2024-03-29T14:07:17;16.60;99.90
26947;DHT22;14501;52.282;10.560;2024-03-29T14:09:46;16.60;99.90
26947;DHT22;14501;52.282;10.560;2024-03-29T14:12:13;16.80;99.90
26947;DHT22;14501;52.282;10.560;2024-03-29T14:14:39;16.90;99.90
26947;DHT22;14501;52.282;10.560;2024-03-29T14:17:05;16.80;99.90
26947;DHT22;14501;52.282;10.560;2024-03-29T14:19:38;16.80;99.90
26947;DHT22;14501;52.282;10.560;2024-03-29T14:22:05;16.70;99.90
26947;DHT22;14501;52.282;10.560;2024-03-29T14:24:32;16.60;99.90
26947;DHT22;14501;52.282;10.560;2024-03-29T14:27:04;16.60;99.90
26947;DHT22;14501;52.282;10.560;2024-03-29T14:29:33;16.60;99.90
26947;DHT22;14501;52.282;10.560;2024-03-29T14:32:00;16.70;99.90
26947;DHT22;14501;52.282;10.560;2024-03-29T14:34:26;16.50;99.90
26947;DHT22;14501;52.282;10.560;2024-03-29T14:36:52;16.50;99.90
26947;DHT22;14501;52.282;10.560;2024-03-29T14:39:18;16.40;99.90
26947;DHT22;14501;52.282;10.560;2024-03-29T14:41:49;16.60;99.90
26947;DHT22;14501;52.282;10.560;2024-03-29T14:44:17;16.60;99.90
26947;DHT22;14501;52.282;10.560;2024-03-29T14:46:43;16.50;99.90
26947;DHT22;14501;52.282;10.560;2024-03-29T14:49:09;16.40;99.90
26947;DHT22;14501;52.282;10.560;2024-03-29T14:51:37;16.30;99.90
26947;DHT22;14501;52.282;10.560;2024-03-29T14:54:03;16.00;99.90
26947;DHT22;14501;52.282;10.560;2024-03-29T14:56:33;15.90;99.90
26947;DHT22;14501;52.282;10.560;2024-03-29T14:59:05;15.80;99.90
26947;DHT22;14501;52.282;10.560;2024-03-29T15:01:32;15.70;99.90
26947;DHT22;14501;52.282;10.560;2024-03-29T15:03:58;15.50;99.90
26947;DHT22;14501;52.282;10.560;2024-03-29T15:06:24;15.40;99.90
26947;DHT22;14501;52.282;10.560;2024-03-29T15:08:53;15.40;99.90
26947;DHT22;14501;52.282;10.560;2024-03-29T15:11:19;15.40;99.90
26947;DHT22;14501;52.282;10.560;2024-03-29T15:13:44;15.50;99.90
26947;DHT22;14501;52.282;10.560;2024-03-29T15:16:10;15.40;99.90
26947;DHT22;14501;52.282;10.560;2024-03-29T15:18:35;15.40;99.90
26947;DHT22;14501;52.282;10.560;2024-03-29T15:21:02;15.50;99.90
26947;DHT22;14501;52.282;10.560;2024-03-29T15:23:29;15.50;99.90
26947;DHT22;14501;52.282;10.560;2024-03-29T15:25:56;15.50;99.90
26947;DHT22;14501;52.282;10.560;2024-03-29T15:28:23;16.70;99.90
26947;DHT22;14501;52.282;10.560;2024-03-29T15:31:11;15.70;99.90
26947;DHT22;14501;52.282;10.560;2024-03-29T15:33:40;15.80;99.90
26947;DHT22;14501;52.282;10.560;2024-03-29T15:36:06;15.80;99.90
26947;DHT22;14501;52.282;10.560;2024-03-29T15:38:35;15.80;99.90
26947;DHT22;14501;52.282;10.560;2024-03-29T15:41:01;15.80;99.90
26947;DHT22;14501;52.282;10.560;2024-03-29T15:43:29;15.70;99.90
26947;DHT22;14501;52.282;10.560;2024-03-29T15:45:55;15.50;99.90
26947;DHT22;14501;52.282;10.560;2024-03-29T15:48:22;15.50;99.90
26947;DHT22;14501;52.282;10.560;2024-03-29T15:50:48;15.30;99.90
26947;DHT22;14501;52.282;10.560;2024-03-29T15:53:13;15.10;99.90
26947;DHT22;14501;52.282;10.560;2024-03-29T15:55:39;15.00;99.90
26947;DHT22;14501;52.282;10.560;2024-03-29T15:58:05;15.00;99.90
26947;DHT22;14501;52.282;10.560;2024-03-29T16:00:30;15.00;99.90
26947;DHT22;14501;52.282;10.560;2024-03-29T16:02:57;15.00;99.90
26947;DHT22;14501;52.282;10.560;2024-03-29T16:05:23;14.80;99.90